createdAt,value
2023-03-26T00:00:32.591Z,25.80
2023-03-26T00:01:32.662Z,17.70
2023-03-26T00:02:32.585Z,22.60
2023-03-26T00:03:32.507Z,18.30
2023-03-26T00:04:32.552Z,17.80
2023-03-26T00:05:32.650Z,18.60
2023-03-26T00:06:32.545Z,19.50
2023-03-26T00:07:32.515Z,19.50
2023-03-26T00:08:32.562Z,19.20
2023-03-26T00:09:32.444Z,19.80
2023-03-26T00:10:32.431Z,20.10
2023-03-26T00:11:32.392Z,19.40
2023-03-26T00:12:32.764Z,18.20
2023-03-26T00:13:34.006Z,19.80
2023-03-26T00:14:32.366Z,20.10
2023-03-26T00:15:32.354Z,17.30
2023-03-26T00:16:32.407Z,21.00
2023-03-26T00:17:32.416Z,27.70
2023-03-26T00:18:32.322Z,20.90
2023-03-26T00:19:32.318Z,20.50
2023-03-26T00:20:32.276Z,23.80
2023-03-26T00:21:32.347Z,22.20
2023-03-26T00:22:32.294Z,25.60
2023-03-26T00:23:32.287Z,24.90
2023-03-26T00:24:32.278Z,20.90
2023-03-26T00:25:32.249Z,27.40
2023-03-26T00:26:32.238Z,22.80
2023-03-26T00:27:32.337Z,23.80
2023-03-26T00:28:32.214Z,23.20
2023-03-26T00:29:32.284Z,25.50
2023-03-26T00:30:32.251Z,25.00
2023-03-26T00:31:32.177Z,26.10
2023-03-26T00:32:32.190Z,27.00
2023-03-26T00:33:32.177Z,26.00
2023-03-26T00:35:33.006Z,25.90
2023-03-26T00:36:33.085Z,25.80
2023-03-26T00:37:32.885Z,30.70
2023-03-26T00:38:32.908Z,26.90
2023-03-26T00:39:32.881Z,32.30
2023-03-26T00:40:32.860Z,28.80
2023-03-26T00:41:33.613Z,28.00
2023-03-26T00:42:32.833Z,26.90
2023-03-26T00:43:32.860Z,32.10
2023-03-26T00:44:32.796Z,30.40
2023-03-26T00:45:32.769Z,30.70
2023-03-26T00:46:32.821Z,27.60
2023-03-26T00:47:32.883Z,30.50
2023-03-26T00:48:44.345Z,31.80
2023-03-26T00:49:33.783Z,26.80
2023-03-26T00:50:33.662Z,29.90
2023-03-26T00:51:33.896Z,28.80
2023-03-26T00:52:32.664Z,25.80
2023-03-26T00:53:32.652Z,25.20
2023-03-26T00:54:32.705Z,29.20
2023-03-26T00:55:32.695Z,26.10
2023-03-26T00:56:32.676Z,25.20
2023-03-26T00:57:35.804Z,29.10
2023-03-26T00:58:32.689Z,28.50
2023-03-26T00:59:32.658Z,29.00
2023-03-26T01:00:33.888Z,32.00
2023-03-26T01:01:32.669Z,29.40
2023-03-26T01:02:32.649Z,27.40
2023-03-26T01:03:32.600Z,25.00
2023-03-26T01:04:32.775Z,25.10
2023-03-26T01:05:32.851Z,23.60
2023-03-26T01:06:32.524Z,23.00
2023-03-26T01:07:32.518Z,23.00
2023-03-26T01:08:32.470Z,24.70
2023-03-26T01:09:32.435Z,23.30
2023-03-26T01:10:32.499Z,23.90
2023-03-26T01:11:34.141Z,24.60
2023-03-26T01:12:32.490Z,30.10
2023-03-26T01:13:32.486Z,24.60
2023-03-26T01:14:32.416Z,23.80
2023-03-26T01:15:32.407Z,23.10
2023-03-26T01:16:32.406Z,23.70
2023-03-26T01:17:32.462Z,21.50
2023-03-26T01:18:32.578Z,21.50
2023-03-26T01:19:32.421Z,23.40
2023-03-26T01:20:32.371Z,22.00
2023-03-26T01:21:33.851Z,26.40
2023-03-26T01:22:32.296Z,22.70
2023-03-26T01:23:32.278Z,27.60
2023-03-26T01:24:32.322Z,25.40
2023-03-26T01:25:32.254Z,28.20
2023-03-26T01:26:32.313Z,23.10
2023-03-26T01:27:32.219Z,28.50
2023-03-26T01:28:32.204Z,24.90
2023-03-26T01:29:32.207Z,18.50
2023-03-26T01:30:32.196Z,22.60
2023-03-26T01:31:32.195Z,25.70
2023-03-26T01:32:32.357Z,26.50
2023-03-26T01:33:32.478Z,21.90
2023-03-26T01:34:32.119Z,30.40
2023-03-26T01:35:33.498Z,19.00
2023-03-26T01:36:32.169Z,23.70
2023-03-26T01:37:32.104Z,30.10
2023-03-26T01:38:32.093Z,27.40
2023-03-26T01:39:32.234Z,24.90
2023-03-26T01:40:32.050Z,24.60
2023-03-26T01:41:32.073Z,25.70
2023-03-26T01:42:32.053Z,22.10
2023-03-26T01:43:32.087Z,21.30
2023-03-26T01:44:31.995Z,27.70
2023-03-26T01:45:33.028Z,27.80
2023-03-26T01:46:32.024Z,28.00
2023-03-26T01:47:32.139Z,18.40
2023-03-26T01:48:32.000Z,28.00
2023-03-26T01:49:34.945Z,31.30
2023-03-26T01:50:32.191Z,22.40
2023-03-26T01:51:31.911Z,21.70
2023-03-26T01:52:31.890Z,20.90
2023-03-26T01:53:31.884Z,17.40
2023-03-26T01:54:31.914Z,27.80
2023-03-26T01:55:31.842Z,20.50
2023-03-26T01:56:31.946Z,22.70
2023-03-26T01:57:31.876Z,24.90
2023-03-26T01:58:31.814Z,17.80
2023-03-26T01:59:32.216Z,21.70
2023-03-26T02:00:31.958Z,21.80
2023-03-26T02:01:31.838Z,21.70
2023-03-26T02:02:32.051Z,27.00
2023-03-26T02:03:31.917Z,20.20
2023-03-26T02:04:32.209Z,20.80
2023-03-26T02:05:31.927Z,20.80
2023-03-26T02:06:31.702Z,22.60
2023-03-26T02:07:31.699Z,19.60
2023-03-26T02:08:31.913Z,19.60
2023-03-26T02:09:31.685Z,17.00
2023-03-26T02:10:31.784Z,21.60
2023-03-26T02:11:35.305Z,22.80
2023-03-26T02:12:31.646Z,21.30
2023-03-26T02:13:31.646Z,22.60
2023-03-26T02:14:31.827Z,22.80
2023-03-26T02:15:31.609Z,28.70
2023-03-26T02:16:31.586Z,23.60
2023-03-26T02:17:32.388Z,22.60
2023-03-26T02:18:31.842Z,24.60
2023-03-26T02:19:31.632Z,21.70
2023-03-26T02:20:31.720Z,22.80
2023-03-26T02:21:31.596Z,21.40
2023-03-26T02:22:31.659Z,24.80
2023-03-26T02:23:31.506Z,24.40
2023-03-26T02:24:32.576Z,22.10
2023-03-26T02:25:31.685Z,22.70
2023-03-26T02:26:31.541Z,21.40
2023-03-26T02:27:31.547Z,27.20
2023-03-26T02:28:31.520Z,24.00
2023-03-26T02:29:31.420Z,27.60
2023-03-26T02:30:31.422Z,24.60
2023-03-26T02:31:31.517Z,21.20
2023-03-26T02:32:31.618Z,22.80
2023-03-26T02:33:31.410Z,24.80
2023-03-26T02:34:31.363Z,22.30
2023-03-26T02:35:33.019Z,24.50
2023-03-26T02:36:31.443Z,21.20
2023-03-26T02:37:31.322Z,23.00
2023-03-26T02:38:31.352Z,23.10
2023-03-26T02:39:31.286Z,22.90
2023-03-26T02:40:31.313Z,21.50
2023-03-26T02:41:31.288Z,20.90
2023-03-26T02:42:31.306Z,19.60
2023-03-26T02:43:31.238Z,20.20
2023-03-26T02:44:31.292Z,25.90
2023-03-26T02:45:31.313Z,29.00
2023-03-26T02:46:31.236Z,21.50
2023-03-26T02:47:31.257Z,23.40
2023-03-26T02:48:31.180Z,25.30
2023-03-26T02:49:31.166Z,21.40
2023-03-26T02:50:31.220Z,23.80
2023-03-26T02:51:32.094Z,27.40
2023-03-26T02:52:31.326Z,23.80
2023-03-26T02:53:31.378Z,25.60
2023-03-26T02:54:31.225Z,18.90
2023-03-26T02:55:31.300Z,20.60
2023-03-26T02:56:31.432Z,24.00
2023-03-26T02:57:31.069Z,21.90
2023-03-26T02:58:31.424Z,27.50
2023-03-26T02:59:31.042Z,22.20
2023-03-26T03:00:31.037Z,21.20
2023-03-26T03:01:31.108Z,21.20
2023-03-26T03:02:31.083Z,24.90
2023-03-26T03:03:31.309Z,23.90
2023-03-26T03:04:30.977Z,27.70
2023-03-26T03:05:31.012Z,25.30
2023-03-26T03:06:31.402Z,24.00
2023-03-26T03:07:31.459Z,18.10
2023-03-26T03:08:30.946Z,25.20
2023-03-26T03:09:30.932Z,20.80
2023-03-26T03:10:30.905Z,23.00
2023-03-26T03:11:30.911Z,23.20
2023-03-26T03:12:30.949Z,25.20
2023-03-26T03:13:30.902Z,21.90
2023-03-26T03:14:30.901Z,29.10
2023-03-26T03:15:30.999Z,24.20
2023-03-26T03:16:31.007Z,24.10
2023-03-26T03:17:30.862Z,18.60
2023-03-26T03:18:30.870Z,25.70
2023-03-26T03:19:30.866Z,25.50
2023-03-26T03:20:31.011Z,24.60
2023-03-26T03:21:31.052Z,28.10
2023-03-26T03:22:31.237Z,30.70
2023-03-26T03:23:30.846Z,24.50
2023-03-26T03:24:30.790Z,23.70
2023-03-26T03:25:30.725Z,22.10
2023-03-26T03:26:30.793Z,18.90
2023-03-26T03:27:31.255Z,26.20
2023-03-26T03:28:31.173Z,24.20
2023-03-26T03:29:30.689Z,31.30
2023-03-26T03:30:30.654Z,29.20
2023-03-26T03:31:30.728Z,28.30
2023-03-26T03:32:31.456Z,24.10
2023-03-26T03:33:33.099Z,27.50
2023-03-26T03:34:30.813Z,30.10
2023-03-26T03:35:30.826Z,24.00
2023-03-26T03:36:30.588Z,27.10
2023-03-26T03:37:30.571Z,27.00
2023-03-26T03:38:30.582Z,29.60
2023-03-26T03:39:30.614Z,22.90
2023-03-26T03:40:31.388Z,26.70
2023-03-26T03:41:32.038Z,27.80
2023-03-26T03:42:30.806Z,29.00
2023-03-26T03:43:30.537Z,28.40
2023-03-26T03:44:31.883Z,26.90
2023-03-26T03:45:30.549Z,23.40
2023-03-26T03:46:30.644Z,30.30
2023-03-26T03:48:02.684Z,24.40
2023-03-26T03:48:30.449Z,20.20
2023-03-26T03:49:30.473Z,24.70
2023-03-26T03:50:30.552Z,23.60
2023-03-26T03:51:30.610Z,26.50
2023-03-26T03:52:30.612Z,24.50
2023-03-26T03:53:31.743Z,21.20
2023-03-26T03:54:30.667Z,22.20
2023-03-26T03:55:30.377Z,29.70
2023-03-26T03:56:30.954Z,24.60
2023-03-26T03:57:30.453Z,25.40
2023-03-26T03:58:30.339Z,26.90
2023-03-26T03:59:30.312Z,24.10
2023-03-26T04:00:31.091Z,22.30
2023-03-26T04:01:31.472Z,23.60
2023-03-26T04:02:30.464Z,24.50
2023-03-26T04:03:33.822Z,24.90
2023-03-26T04:04:30.493Z,19.60
2023-03-26T04:05:30.278Z,25.60
2023-03-26T04:06:30.371Z,22.50
2023-03-26T04:07:30.280Z,21.70
2023-03-26T04:08:30.233Z,25.00
2023-03-26T04:09:31.708Z,21.30
2023-03-26T04:10:30.178Z,21.30
2023-03-26T04:11:30.143Z,25.00
2023-03-26T04:12:30.181Z,22.90
2023-03-26T04:13:30.130Z,23.80
2023-03-26T04:14:30.134Z,23.10
2023-03-26T04:15:32.292Z,23.40
2023-03-26T04:16:30.154Z,30.60
2023-03-26T04:17:30.147Z,19.80
2023-03-26T04:18:32.020Z,21.40
2023-03-26T04:19:30.418Z,20.40
2023-03-26T04:20:31.857Z,19.80
2023-03-26T04:21:30.213Z,21.70
2023-03-26T04:22:30.699Z,20.70
2023-03-26T04:23:30.111Z,24.60
2023-03-26T04:24:29.998Z,20.10
2023-03-26T04:25:30.265Z,20.20
2023-03-26T04:26:29.982Z,20.70
2023-03-26T04:27:30.014Z,21.40
2023-03-26T04:28:31.065Z,20.50
2023-03-26T04:29:29.952Z,22.10
2023-03-26T04:30:30.230Z,25.20
2023-03-26T04:31:36.709Z,18.50
2023-03-26T04:32:34.545Z,21.30
2023-03-26T04:33:29.916Z,19.30
2023-03-26T04:34:29.980Z,19.90
2023-03-26T04:35:30.468Z,19.00
2023-03-26T04:36:29.904Z,20.70
2023-03-26T04:37:31.325Z,21.00
2023-03-26T04:38:29.985Z,22.00
2023-03-26T04:39:30.044Z,20.30
2023-03-26T04:40:30.956Z,26.10
2023-03-26T04:41:29.863Z,19.10
2023-03-26T04:42:31.396Z,20.10
2023-03-26T04:43:31.036Z,21.50
2023-03-26T04:44:30.169Z,23.40
2023-03-26T04:45:29.949Z,24.10
2023-03-26T04:46:29.900Z,27.00
2023-03-26T04:47:30.372Z,18.30
2023-03-26T04:48:29.903Z,20.30
2023-03-26T04:49:33.004Z,20.40
2023-03-26T04:50:30.665Z,21.90
2023-03-26T04:51:30.525Z,18.20
2023-03-26T04:52:29.810Z,20.60
2023-03-26T04:53:29.812Z,18.30
2023-03-26T04:54:30.762Z,15.30
2023-03-26T04:55:29.684Z,17.80
2023-03-26T04:56:29.880Z,23.40
2023-03-26T04:57:29.664Z,23.90
2023-03-26T04:58:31.829Z,20.00
2023-03-26T04:59:29.911Z,18.50
2023-03-26T05:00:33.537Z,20.00
2023-03-26T05:01:29.870Z,17.80
2023-03-26T05:02:29.591Z,18.70
2023-03-26T05:03:30.214Z,23.90
2023-03-26T05:04:30.827Z,22.40
2023-03-26T05:05:30.552Z,21.10
2023-03-26T05:06:35.199Z,16.40
2023-03-26T05:07:32.060Z,20.20
2023-03-26T05:08:30.270Z,16.80
2023-03-26T05:09:32.779Z,17.80
2023-03-26T05:10:29.566Z,19.60
2023-03-26T05:11:30.686Z,17.00
2023-03-26T05:12:29.531Z,18.90
2023-03-26T05:13:29.885Z,18.80
2023-03-26T05:14:29.819Z,16.60
2023-03-26T05:15:29.618Z,20.30
2023-03-26T05:16:30.115Z,19.70
2023-03-26T05:17:29.687Z,21.10
2023-03-26T05:18:29.977Z,17.80
2023-03-26T05:19:29.383Z,14.90
2023-03-26T05:20:29.646Z,18.90
2023-03-26T05:21:29.617Z,17.20
2023-03-26T05:22:30.266Z,17.40
2023-03-26T05:23:29.771Z,20.00
2023-03-26T05:24:29.512Z,23.10
2023-03-26T05:25:30.211Z,22.20
2023-03-26T05:26:29.241Z,15.50
2023-03-26T05:27:29.225Z,17.50
2023-03-26T05:28:29.488Z,18.20
2023-03-26T05:29:29.947Z,22.30
2023-03-26T05:30:29.507Z,19.50
2023-03-26T05:31:29.983Z,18.80
2023-03-26T05:32:30.913Z,21.70
2023-03-26T05:33:31.092Z,19.10
2023-03-26T05:34:29.332Z,22.40
2023-03-26T05:35:29.390Z,19.50
2023-03-26T05:36:29.199Z,17.10
2023-03-26T05:37:32.655Z,20.70
2023-03-26T05:38:31.030Z,20.80
2023-03-26T05:39:29.188Z,21.50
2023-03-26T05:40:30.544Z,22.50
2023-03-26T05:41:29.992Z,21.50
2023-03-26T05:42:29.058Z,21.40
2023-03-26T05:43:30.638Z,26.50
2023-03-26T05:44:28.990Z,22.30
2023-03-26T05:45:28.997Z,20.10
2023-03-26T05:46:29.055Z,16.70
2023-03-26T05:47:30.394Z,20.30
2023-03-26T05:48:29.531Z,23.20
2023-03-26T05:49:28.943Z,16.00
2023-03-26T05:50:29.017Z,25.60
2023-03-26T05:51:29.202Z,23.70
2023-03-26T05:52:28.958Z,19.70
2023-03-26T05:53:28.922Z,15.60
2023-03-26T05:54:29.079Z,20.50
2023-03-26T05:55:28.936Z,24.00
2023-03-26T05:56:28.852Z,18.00
2023-03-26T05:57:28.994Z,15.60
2023-03-26T05:58:28.849Z,21.20
2023-03-26T05:59:28.843Z,17.30
2023-03-26T06:00:28.885Z,15.90
2023-03-26T06:01:28.830Z,21.70
2023-03-26T06:02:28.962Z,17.90
2023-03-26T06:03:29.355Z,19.50
2023-03-26T06:04:29.386Z,14.60
2023-03-26T06:05:36.331Z,19.00
2023-03-26T06:06:28.742Z,16.80
2023-03-26T06:07:29.070Z,18.60
2023-03-26T06:08:29.716Z,22.10
2023-03-26T06:09:29.008Z,16.60
2023-03-26T06:10:28.678Z,15.20
2023-03-26T06:11:28.674Z,13.50
2023-03-26T06:12:28.794Z,16.40
2023-03-26T06:13:28.673Z,20.20
2023-03-26T06:14:28.713Z,16.00
2023-03-26T06:15:28.839Z,17.40
2023-03-26T06:16:28.772Z,15.60
2023-03-26T06:17:28.598Z,10.80
2023-03-26T06:18:28.610Z,15.60
2023-03-26T06:19:28.602Z,16.90
2023-03-26T06:20:28.686Z,15.50
2023-03-26T06:21:29.369Z,14.90
2023-03-26T06:22:29.870Z,14.80
2023-03-26T06:23:30.245Z,16.70
2023-03-26T06:24:28.527Z,16.70
2023-03-26T06:25:28.615Z,18.30
2023-03-26T06:26:28.521Z,17.20
2023-03-26T06:27:28.478Z,18.20
2023-03-26T06:28:29.011Z,16.20
2023-03-26T06:29:28.666Z,13.80
2023-03-26T06:30:28.435Z,15.00
2023-03-26T06:31:28.578Z,17.10
2023-03-26T06:32:28.447Z,13.00
2023-03-26T06:33:30.053Z,18.80
2023-03-26T06:34:28.426Z,18.80
2023-03-26T06:35:28.396Z,15.50
2023-03-26T06:36:28.369Z,16.70
2023-03-26T06:37:28.445Z,13.20
2023-03-26T06:39:23.175Z,14.80
2023-03-26T06:40:23.156Z,18.30
2023-03-26T06:41:23.210Z,16.00
2023-03-26T06:43:06.892Z,17.50
2023-03-26T06:43:24.132Z,16.40
2023-03-26T06:44:23.132Z,12.10
2023-03-26T06:45:23.085Z,16.60
2023-03-26T06:46:23.127Z,15.70
2023-03-26T06:47:23.440Z,12.80
2023-03-26T06:48:23.048Z,16.30
2023-03-26T06:49:23.352Z,15.40
2023-03-26T06:50:23.091Z,13.10
2023-03-26T06:51:23.025Z,12.40
2023-03-26T06:52:23.013Z,13.00
2023-03-26T06:53:23.052Z,10.90
2023-03-26T06:54:22.960Z,12.20
2023-03-26T06:55:23.062Z,11.80
2023-03-26T06:56:23.207Z,13.90
2023-03-26T06:57:22.998Z,13.90
2023-03-26T06:58:23.023Z,11.90
2023-03-26T06:59:22.917Z,16.50
2023-03-26T07:00:22.991Z,15.90
2023-03-26T07:01:23.040Z,11.80
2023-03-26T07:02:23.005Z,15.00
2023-03-26T07:03:23.060Z,10.70
2023-03-26T07:04:22.881Z,15.00
2023-03-26T07:05:22.873Z,14.00
2023-03-26T07:06:22.959Z,11.70
2023-03-26T07:07:22.990Z,14.50
2023-03-26T07:08:25.096Z,15.10
2023-03-26T07:09:23.796Z,9.90
2023-03-26T07:10:22.976Z,15.60
2023-03-26T07:11:22.811Z,14.00
2023-03-26T07:12:22.737Z,15.50
2023-03-26T07:13:22.720Z,13.30
2023-03-26T07:14:22.840Z,17.70
2023-03-26T07:15:22.711Z,13.90
2023-03-26T07:16:22.904Z,12.30
2023-03-26T07:17:22.881Z,13.30
2023-03-26T07:18:22.637Z,15.10
2023-03-26T07:19:22.652Z,15.80
2023-03-26T07:20:22.861Z,16.90
2023-03-26T07:21:22.635Z,11.80
2023-03-26T07:22:22.577Z,14.40
2023-03-26T07:23:22.821Z,12.30
2023-03-26T07:24:22.631Z,14.80
2023-03-26T07:25:22.635Z,15.70
2023-03-26T07:26:22.874Z,15.90
2023-03-26T07:27:22.532Z,13.00
2023-03-26T07:28:22.696Z,11.20
2023-03-26T07:29:22.663Z,15.40
2023-03-26T07:30:22.595Z,19.00
2023-03-26T07:31:22.515Z,15.50
2023-03-26T07:32:22.491Z,12.60
2023-03-26T07:33:23.574Z,12.60
2023-03-26T07:34:22.593Z,12.10
2023-03-26T07:35:22.662Z,14.20
2023-03-26T07:36:22.411Z,12.50
2023-03-26T07:37:22.534Z,14.80
2023-03-26T07:38:22.393Z,15.70
2023-03-26T07:39:22.538Z,13.50
2023-03-26T07:40:22.562Z,13.40
2023-03-26T07:41:22.474Z,14.70
2023-03-26T07:42:22.412Z,12.80
2023-03-26T07:43:22.318Z,14.70
2023-03-26T07:44:22.597Z,16.00
2023-03-26T07:45:22.326Z,16.30
2023-03-26T07:46:22.408Z,17.10
2023-03-26T07:47:22.313Z,13.30
2023-03-26T07:48:22.251Z,13.30
2023-03-26T07:49:22.215Z,14.70
2023-03-26T07:50:22.434Z,14.50
2023-03-26T07:51:22.248Z,17.60
2023-03-26T07:52:22.265Z,17.30
2023-03-26T07:53:22.183Z,12.30
2023-03-26T07:54:22.225Z,11.10
2023-03-26T07:55:22.169Z,18.10
2023-03-26T07:56:22.212Z,18.40
2023-03-26T07:57:22.164Z,16.00
2023-03-26T07:58:22.106Z,13.30
2023-03-26T07:59:22.206Z,14.40
2023-03-26T08:00:22.095Z,14.60
2023-03-26T08:01:22.078Z,15.90
2023-03-26T08:02:22.104Z,13.30
2023-03-26T08:03:22.159Z,15.70
2023-03-26T08:04:23.724Z,14.90
2023-03-26T08:05:23.426Z,15.10
2023-03-26T08:06:21.979Z,12.80
2023-03-26T08:07:21.971Z,14.80
2023-03-26T08:08:21.984Z,16.20
2023-03-26T08:09:22.004Z,15.50
2023-03-26T08:10:22.187Z,16.80
2023-03-26T08:11:22.201Z,12.50
2023-03-26T08:12:21.917Z,12.30
2023-03-26T08:13:21.895Z,16.70
2023-03-26T08:14:21.874Z,13.50
2023-03-26T08:15:22.047Z,17.90
2023-03-26T08:16:21.990Z,12.90
2023-03-26T08:17:22.039Z,15.50
2023-03-26T08:18:21.855Z,13.30
2023-03-26T08:19:21.972Z,12.70
2023-03-26T08:20:21.793Z,14.80
2023-03-26T08:21:21.793Z,13.40
2023-03-26T08:22:21.805Z,18.20
2023-03-26T08:23:21.782Z,16.60
2023-03-26T08:24:21.804Z,15.60
2023-03-26T08:25:21.763Z,14.00
2023-03-26T08:26:21.761Z,15.80
2023-03-26T08:27:21.720Z,14.80
2023-03-26T08:28:21.725Z,15.00
2023-03-26T08:29:21.710Z,14.80
2023-03-26T08:30:21.755Z,14.90
2023-03-26T08:31:21.837Z,16.10
2023-03-26T08:32:21.682Z,18.40
2023-03-26T08:33:21.618Z,15.10
2023-03-26T08:34:21.660Z,17.80
2023-03-26T08:35:21.607Z,14.10
2023-03-26T08:36:21.601Z,16.90
2023-03-26T08:37:21.580Z,14.70
2023-03-26T08:38:21.564Z,13.60
2023-03-26T08:39:21.591Z,12.60
2023-03-26T08:40:21.521Z,15.30
2023-03-26T08:41:21.507Z,16.00
2023-03-26T08:42:21.529Z,14.50
2023-03-26T08:43:21.486Z,12.90
2023-03-26T08:44:21.491Z,17.10
2023-03-26T08:45:21.482Z,15.50
2023-03-26T08:46:21.468Z,11.90
2023-03-26T08:47:21.539Z,11.50
2023-03-26T08:48:21.438Z,14.90
2023-03-26T08:49:22.760Z,13.40
2023-03-26T08:50:21.444Z,12.10
2023-03-26T08:51:21.376Z,15.80
2023-03-26T08:52:21.365Z,10.10
2023-03-26T08:53:21.532Z,14.80
2023-03-26T08:54:21.377Z,13.20
2023-03-26T08:55:21.357Z,12.90
2023-03-26T08:56:21.349Z,13.70
2023-03-26T08:57:21.302Z,8.80
2023-03-26T08:58:21.309Z,13.80
2023-03-26T08:59:21.274Z,13.40
2023-03-26T09:00:21.246Z,15.90
2023-03-26T09:01:21.320Z,12.30
2023-03-26T09:02:21.233Z,12.70
2023-03-26T09:03:21.217Z,11.20
2023-03-26T09:04:21.237Z,12.50
2023-03-26T09:05:21.176Z,13.70
2023-03-26T09:06:21.204Z,13.80
2023-03-26T09:07:21.203Z,11.40
2023-03-26T09:08:21.150Z,11.90
2023-03-26T09:09:21.135Z,10.70
2023-03-26T09:10:21.173Z,14.80
2023-03-26T09:11:21.112Z,9.50
2023-03-26T09:12:21.204Z,15.30
2023-03-26T09:13:21.072Z,15.10
2023-03-26T09:14:21.073Z,11.20
2023-03-26T09:15:21.075Z,11.10
2023-03-26T09:16:21.159Z,11.80
2023-03-26T09:17:21.069Z,15.90
2023-03-26T09:18:21.044Z,11.10
2023-03-26T09:19:20.985Z,14.50
2023-03-26T09:20:20.996Z,9.00
2023-03-26T09:21:20.959Z,12.30
2023-03-26T09:22:20.997Z,12.50
2023-03-26T09:23:20.938Z,12.70
2023-03-26T09:24:20.980Z,11.20
2023-03-26T09:25:20.938Z,10.70
2023-03-26T09:26:20.925Z,11.20
2023-03-26T09:27:20.930Z,10.70
2023-03-26T09:28:20.895Z,10.90
2023-03-26T09:29:20.858Z,9.20
2023-03-26T09:30:20.863Z,11.30
2023-03-26T09:31:20.898Z,12.80
2023-03-26T09:32:20.863Z,12.80
2023-03-26T09:33:20.857Z,14.70
2023-03-26T09:34:20.863Z,12.30
2023-03-26T09:35:20.831Z,8.50
2023-03-26T09:36:20.799Z,7.40
2023-03-26T09:37:20.765Z,8.10
2023-03-26T09:38:20.821Z,8.60
2023-03-26T09:39:20.765Z,7.60
2023-03-26T09:40:20.718Z,7.10
2023-03-26T09:41:20.699Z,13.00
2023-03-26T09:42:20.673Z,11.60
2023-03-26T09:43:20.884Z,9.20
2023-03-26T09:44:20.712Z,11.50
2023-03-26T09:45:20.643Z,9.00
2023-03-26T09:46:20.776Z,9.40
2023-03-26T09:47:20.672Z,11.20
2023-03-26T09:48:20.613Z,10.80
2023-03-26T09:49:20.595Z,12.00
2023-03-26T09:50:20.658Z,11.00
2023-03-26T09:51:20.565Z,7.80
2023-03-26T09:52:20.578Z,9.70
2023-03-26T09:53:20.562Z,10.80
2023-03-26T09:54:20.530Z,11.80
2023-03-26T09:55:20.534Z,10.00
2023-03-26T09:56:20.527Z,14.80
2023-03-26T09:57:20.544Z,10.90
2023-03-26T09:58:20.676Z,9.30
2023-03-26T09:59:20.524Z,10.70
2023-03-26T10:00:20.619Z,10.40
2023-03-26T10:01:20.488Z,9.60
2023-03-26T10:02:20.419Z,9.10
2023-03-26T10:03:20.564Z,11.30
2023-03-26T10:04:20.472Z,11.50
2023-03-26T10:05:20.373Z,9.30
2023-03-26T10:06:20.423Z,8.90
2023-03-26T10:07:20.356Z,9.50
2023-03-26T10:08:20.398Z,7.60
2023-03-26T10:09:20.348Z,10.20
2023-03-26T10:10:20.320Z,8.10
2023-03-26T10:11:20.303Z,8.80
2023-03-26T10:12:20.306Z,7.00
2023-03-26T10:13:20.255Z,7.70
2023-03-26T10:14:21.478Z,10.60
2023-03-26T10:15:20.237Z,8.20
2023-03-26T10:16:20.285Z,5.90
2023-03-26T10:17:20.242Z,8.20
2023-03-26T10:18:27.044Z,4.10
2023-03-26T10:19:21.171Z,4.80
2023-03-26T10:20:20.273Z,3.30
2023-03-26T10:21:24.959Z,6.10
2023-03-26T10:22:21.739Z,2.90
2023-03-26T10:23:20.798Z,4.60
2023-03-26T10:24:20.168Z,3.60
2023-03-26T10:25:20.089Z,4.00
2023-03-26T10:26:20.701Z,3.70
2023-03-26T10:27:20.362Z,3.90
2023-03-26T10:28:21.284Z,4.40
2023-03-26T10:29:20.031Z,2.80
2023-03-26T10:30:20.044Z,2.80
2023-03-26T10:31:20.108Z,4.50
2023-03-26T10:32:20.048Z,5.20
2023-03-26T10:33:19.993Z,4.00
2023-03-26T10:34:28.883Z,2.50
2023-03-26T10:35:21.040Z,3.60
2023-03-26T10:36:19.988Z,3.80
2023-03-26T10:37:19.969Z,3.70
2023-03-26T10:38:20.495Z,2.40
2023-03-26T10:39:36.836Z,2.70
2023-03-26T10:40:20.924Z,2.50
2023-03-26T10:41:31.170Z,4.30
2023-03-26T10:42:19.862Z,2.90
2023-03-26T10:43:19.885Z,4.10
2023-03-26T10:44:19.961Z,2.90
2023-03-26T10:45:27.613Z,5.40
2023-03-26T10:46:28.479Z,1.50
2023-03-26T10:47:29.839Z,3.30
2023-03-26T10:48:19.809Z,3.40
2023-03-26T10:49:19.792Z,3.50
2023-03-26T10:50:23.568Z,3.40
2023-03-26T10:51:19.726Z,4.10
2023-03-26T10:52:19.767Z,5.10
2023-03-26T10:53:19.694Z,4.60
2023-03-26T10:54:19.841Z,5.20
2023-03-26T10:55:19.693Z,3.70
2023-03-26T10:56:19.691Z,2.80
2023-03-26T10:57:19.686Z,2.50
2023-03-26T10:58:19.710Z,3.20
2023-03-26T10:59:19.740Z,2.00
2023-03-26T11:00:19.696Z,2.60
2023-03-26T11:01:19.650Z,3.20
2023-03-26T11:02:19.617Z,2.40
2023-03-26T11:03:20.581Z,1.70
2023-03-26T11:04:19.593Z,1.10
2023-03-26T11:05:19.564Z,2.30
2023-03-26T11:06:19.669Z,0.90
2023-03-26T11:07:19.761Z,1.30
2023-03-26T11:08:19.517Z,1.80
2023-03-26T11:09:20.481Z,1.80
2023-03-26T11:10:19.481Z,2.60
2023-03-26T11:11:19.495Z,2.40
2023-03-26T11:12:25.545Z,1.50
2023-03-26T11:13:20.667Z,0.80
2023-03-26T11:14:31.717Z,1.20
2023-03-26T11:15:21.210Z,1.80
2023-03-26T11:16:19.673Z,1.90
2023-03-26T11:17:39.761Z,2.10
2023-03-26T11:18:20.814Z,1.50
2023-03-26T11:19:19.454Z,1.00
2023-03-26T11:20:19.500Z,1.20
2023-03-26T11:21:20.795Z,1.00
2023-03-26T11:22:19.336Z,1.60
2023-03-26T11:23:19.376Z,2.40
2023-03-26T11:24:19.306Z,1.70
2023-03-26T11:25:19.280Z,1.40
2023-03-26T11:26:19.251Z,1.50
2023-03-26T11:27:21.282Z,2.50
2023-03-26T11:28:19.417Z,1.60
2023-03-26T11:29:32.547Z,1.70
2023-03-26T11:30:20.245Z,2.70
2023-03-26T11:31:19.189Z,1.80
2023-03-26T11:32:19.194Z,2.20
2023-03-26T11:33:19.152Z,1.90
2023-03-26T11:34:19.140Z,1.70
2023-03-26T11:35:19.153Z,1.10
2023-03-26T11:36:20.210Z,1.10
2023-03-26T11:37:19.081Z,0.80
2023-03-26T11:38:19.099Z,1.70
2023-03-26T11:39:19.085Z,1.60
2023-03-26T11:40:19.140Z,1.60
2023-03-26T11:41:22.794Z,0.70
2023-03-26T11:42:19.009Z,0.70
2023-03-26T11:43:19.036Z,1.00
2023-03-26T11:44:19.131Z,0.70
2023-03-26T11:45:18.988Z,1.00
2023-03-26T11:46:19.271Z,0.90
2023-03-26T11:47:19.242Z,1.00
2023-03-26T11:48:19.143Z,1.60
2023-03-26T11:49:19.270Z,0.60
2023-03-26T11:50:19.395Z,2.20
2023-03-26T11:51:19.260Z,1.10
2023-03-26T11:52:19.200Z,0.90
2023-03-26T11:53:20.148Z,1.90
2023-03-26T11:54:18.924Z,1.60
2023-03-26T11:55:18.891Z,3.30
2023-03-26T11:56:18.851Z,1.50
2023-03-26T11:57:18.882Z,1.10
2023-03-26T11:58:18.968Z,0.70
2023-03-26T11:59:21.159Z,0.80
2023-03-26T12:00:19.039Z,1.10
2023-03-26T12:01:18.937Z,1.80
2023-03-26T12:02:19.006Z,1.10
2023-03-26T12:03:18.826Z,0.30
2023-03-26T12:04:18.846Z,1.20
2023-03-26T12:05:18.821Z,0.80
2023-03-26T12:06:18.989Z,2.10
2023-03-26T12:07:20.630Z,1.60
2023-03-26T12:08:18.678Z,1.50
2023-03-26T12:09:18.743Z,1.30
2023-03-26T12:10:19.537Z,1.50
2023-03-26T12:11:18.981Z,1.80
2023-03-26T12:12:19.276Z,1.90
2023-03-26T12:13:18.714Z,1.20
2023-03-26T12:14:18.830Z,1.00
2023-03-26T12:15:18.680Z,1.80
2023-03-26T12:16:18.738Z,1.20
2023-03-26T12:17:18.521Z,2.40
2023-03-26T12:18:19.503Z,1.80
2023-03-26T12:19:18.544Z,1.70
2023-03-26T12:20:32.100Z,0.80
2023-03-26T12:21:19.830Z,1.20
2023-03-26T12:22:18.459Z,1.10
2023-03-26T12:23:18.548Z,1.20
2023-03-26T12:24:19.847Z,2.70
2023-03-26T12:25:18.449Z,1.20
2023-03-26T12:26:18.559Z,1.10
2023-03-26T12:27:18.483Z,1.10
2023-03-26T12:28:18.503Z,1.80
2023-03-26T12:29:18.456Z,1.80
2023-03-26T12:30:18.418Z,1.50
2023-03-26T12:31:18.626Z,0.80
2023-03-26T12:32:18.380Z,1.10
2023-03-26T12:33:18.579Z,1.40
2023-03-26T12:34:18.366Z,0.70
2023-03-26T12:35:18.337Z,0.80
2023-03-26T12:36:18.364Z,0.70
2023-03-26T12:37:18.318Z,0.90
2023-03-26T12:38:18.300Z,1.10
2023-03-26T12:40:09.551Z,1.10
2023-03-26T12:40:22.106Z,1.30
2023-03-26T12:43:19.755Z,1.30
2023-03-26T12:44:47.788Z,1.30
2023-03-26T12:44:50.823Z,1.00
2023-03-26T12:44:53.289Z,1.20
2023-03-26T12:45:19.123Z,1.90
2023-03-26T12:47:56.562Z,1.50
2023-03-26T12:47:59.167Z,1.00
2023-03-26T12:48:19.158Z,1.50
2023-03-26T12:49:18.251Z,1.10
2023-03-26T12:50:34.437Z,1.20
2023-03-26T12:51:19.108Z,1.00
2023-03-26T12:54:49.324Z,1.80
